createdAt,value
2023-05-03T12:41:01.111Z,8.45
2023-05-03T12:43:28.480Z,20.75
2023-05-03T12:48:33.041Z,4.95
2023-05-03T12:51:17.535Z,9.82
2023-05-03T12:53:54.909Z,116.72
2023-05-03T12:56:24.716Z,16.45
2023-05-03T12:59:20.571Z,29.23
2023-05-03T13:06:43.832Z,12.15
2023-05-03T13:09:19.313Z,3.20
2023-05-03T13:11:50.332Z,74.70
2023-05-03T13:14:17.737Z,10.35
2023-05-03T13:16:49.373Z,4.55
2023-05-03T13:19:16.826Z,6.20
2023-05-03T13:21:44.061Z,8.68
2023-05-03T13:24:11.296Z,6.32
2023-05-03T13:26:39.112Z,3.08
2023-05-03T13:29:06.291Z,5.43
2023-05-03T13:31:33.743Z,9.30
2023-05-03T13:34:00.979Z,8.30
2023-05-03T13:36:29.646Z,4.53
2023-05-03T13:38:58.085Z,3.63
2023-05-03T13:41:25.388Z,6.10
2023-05-03T13:43:53.288Z,51.65
2023-05-03T13:46:20.722Z,47.10
2023-05-03T13:48:48.589Z,44.95
2023-05-03T13:51:15.753Z,11.68
2023-05-03T13:53:44.520Z,13.55
2023-05-03T13:56:11.883Z,5.90
2023-05-03T13:58:39.932Z,25.17
2023-05-03T14:01:07.412Z,27.58
2023-05-03T14:03:35.389Z,77.60
2023-05-03T14:06:03.211Z,32.83
2023-05-03T14:08:30.454Z,9.82
2023-05-03T14:10:57.745Z,17.52
2023-05-03T14:13:25.085Z,10.73
2023-05-03T14:15:52.430Z,7.07
2023-05-03T14:18:19.737Z,5.30
2023-05-03T14:20:50.440Z,6.68
2023-05-03T14:23:17.771Z,9.30
2023-05-03T14:25:44.983Z,5.70
2023-05-03T14:28:12.151Z,4.93
2023-05-03T14:30:39.619Z,7.07
2023-05-03T14:33:07.688Z,9.38
2023-05-03T14:35:35.235Z,9.45
2023-05-03T14:38:02.441Z,4.53
2023-05-03T14:40:29.803Z,4.65
2023-05-03T14:42:56.986Z,9.23
2023-05-03T14:45:27.626Z,4.70
2023-05-03T14:47:54.993Z,8.82
2023-05-03T14:50:22.282Z,5.93
2023-05-03T14:52:49.434Z,4.38
2023-05-03T14:55:16.605Z,7.95
2023-05-03T14:57:43.756Z,5.75
2023-05-03T15:00:14.448Z,7.32
2023-05-03T15:02:42.433Z,9.15
2023-05-03T15:05:10.825Z,7.22
2023-05-03T15:07:38.113Z,4.00
2023-05-03T15:10:06.472Z,5.40
2023-05-03T15:12:34.168Z,3.97
2023-05-03T15:15:01.633Z,5.20
2023-05-03T15:17:30.811Z,8.85
2023-05-03T15:19:58.141Z,5.95
2023-05-03T15:22:25.424Z,3.33
2023-05-03T15:24:52.702Z,5.07
2023-05-03T15:27:19.852Z,6.70
2023-05-03T15:29:47.099Z,4.18
2023-05-03T15:32:14.594Z,4.45
2023-05-03T15:34:41.851Z,6.20
2023-05-03T15:37:12.174Z,5.93
2023-05-03T15:39:40.066Z,5.53
2023-05-03T15:42:07.485Z,6.20
2023-05-03T15:44:34.714Z,5.93
2023-05-03T15:47:02.662Z,4.07
2023-05-03T15:49:30.046Z,9.35
2023-05-03T15:51:57.278Z,10.48
2023-05-03T15:54:24.691Z,5.57
2023-05-03T15:56:53.790Z,6.07
2023-05-03T15:59:21.423Z,6.15
2023-05-03T16:01:49.415Z,5.82
2023-05-03T16:04:16.794Z,5.38
2023-05-03T16:06:44.174Z,3.35
2023-05-03T16:09:13.161Z,3.72
2023-05-03T16:11:40.334Z,11.52
2023-05-03T16:14:09.616Z,10.57
2023-05-03T16:16:38.766Z,6.82
2023-05-03T16:19:09.057Z,3.88
2023-05-03T16:21:36.209Z,4.20
2023-05-03T16:24:04.941Z,5.88
2023-05-03T16:26:32.128Z,7.30
2023-05-03T16:28:59.468Z,5.18
2023-05-03T16:31:26.743Z,4.47
2023-05-03T16:33:53.951Z,4.78
2023-05-03T16:36:21.167Z,6.78
2023-05-03T16:38:48.467Z,4.60
2023-05-03T16:41:16.857Z,5.50
2023-05-03T16:43:44.368Z,5.43
2023-05-03T16:46:11.659Z,7.70
2023-05-03T16:48:38.933Z,6.47
2023-05-03T16:51:06.267Z,5.57
2023-05-03T16:53:33.512Z,4.30
2023-05-03T16:56:01.474Z,5.30
2023-05-03T16:58:28.685Z,4.68
2023-05-03T17:00:56.391Z,7.05
2023-05-03T17:03:23.974Z,4.35
2023-05-03T17:05:51.575Z,6.63
2023-05-03T17:08:19.260Z,5.78
2023-05-03T17:10:46.538Z,10.85
2023-05-03T17:13:13.975Z,6.60
2023-05-03T17:15:41.281Z,7.05
2023-05-03T17:18:10.619Z,5.15
2023-05-03T17:20:39.187Z,6.32
2023-05-03T17:23:06.539Z,3.72
2023-05-03T17:25:34.178Z,3.72
2023-05-03T17:28:01.432Z,7.55
2023-05-03T17:30:29.211Z,4.32
2023-05-03T17:32:57.142Z,4.57
2023-05-03T17:35:24.365Z,7.55
2023-05-03T17:37:51.521Z,11.63
2023-05-03T17:40:19.188Z,4.95
2023-05-03T17:42:47.102Z,6.72
2023-05-03T17:45:14.750Z,12.05
2023-05-03T17:47:41.968Z,5.13
2023-05-03T17:50:10.052Z,7.45
2023-05-03T17:52:37.345Z,8.18
2023-05-03T17:55:04.569Z,6.45
2023-05-03T17:57:31.796Z,12.95
2023-05-03T17:59:58.956Z,9.77
2023-05-03T18:02:26.142Z,11.73
2023-05-03T18:04:54.426Z,24.25
2023-05-03T18:07:21.766Z,57.05
2023-05-03T18:09:49.271Z,78.50
2023-05-03T18:12:16.500Z,73.13
2023-05-03T18:14:44.115Z,83.53
2023-05-03T18:17:11.253Z,84.85
2023-05-03T18:19:38.561Z,83.72
2023-05-03T18:22:06.852Z,89.28
2023-05-03T18:24:34.038Z,92.00
2023-05-03T18:27:01.738Z,95.20
2023-05-03T18:29:29.047Z,86.65
2023-05-03T18:31:58.564Z,119.90
2023-05-03T18:34:27.214Z,131.18
2023-05-03T18:36:54.424Z,132.57
2023-05-03T18:39:23.022Z,128.38
2023-05-03T18:41:50.776Z,109.03
2023-05-03T18:44:17.987Z,124.13
2023-05-03T18:46:45.201Z,167.43
2023-05-03T18:49:12.724Z,234.73
2023-05-03T18:51:40.425Z,297.13
2023-05-03T18:54:07.915Z,271.05
2023-05-03T18:56:35.350Z,292.23
2023-05-03T18:59:02.912Z,192.90
2023-05-03T19:01:30.245Z,170.98
2023-05-03T19:03:57.767Z,145.07
2023-05-03T19:06:25.074Z,189.02
2023-05-03T19:08:53.667Z,213.83
2023-05-03T19:11:20.868Z,243.37
2023-05-03T19:13:48.261Z,315.67
2023-05-03T19:16:15.759Z,411.67
2023-05-03T19:18:44.441Z,398.00
2023-05-03T19:21:17.608Z,417.10
2023-05-03T19:23:45.008Z,392.70
2023-05-03T19:26:12.436Z,375.53
2023-05-03T19:28:40.063Z,348.63
2023-05-03T19:31:07.349Z,327.37
2023-05-03T19:33:34.659Z,246.70
2023-05-03T19:36:06.723Z,206.43
2023-05-03T19:38:36.616Z,190.30
2023-05-03T19:41:12.485Z,165.70
2023-05-03T19:43:40.370Z,156.47
2023-05-03T19:46:08.097Z,137.50
2023-05-03T19:48:35.654Z,132.23
2023-05-03T19:51:05.454Z,115.97
2023-05-03T19:53:32.778Z,148.90
2023-05-03T19:56:00.940Z,157.73
2023-05-03T19:58:28.534Z,133.50
2023-05-03T20:00:55.819Z,150.17
2023-05-03T20:03:23.963Z,149.67
2023-05-03T20:05:51.469Z,162.13
2023-05-03T20:08:18.620Z,181.87
2023-05-03T20:10:46.658Z,186.17
2023-05-03T20:13:14.184Z,196.27
2023-05-03T20:15:41.536Z,187.00
2023-05-03T20:18:09.158Z,170.63
2023-05-03T20:20:36.623Z,189.67
2023-05-03T20:23:03.840Z,191.87
2023-05-03T20:25:31.067Z,174.30
2023-05-03T20:27:58.251Z,173.80
2023-05-03T20:30:25.527Z,182.37
2023-05-03T20:32:53.349Z,156.70
2023-05-03T20:35:20.776Z,149.03
2023-05-03T20:37:47.932Z,139.30
2023-05-03T20:40:15.703Z,123.43
2023-05-03T20:42:42.966Z,118.17
2023-05-03T20:45:10.335Z,123.40
2023-05-03T20:47:37.690Z,140.70
2023-05-03T20:50:05.993Z,122.73
2023-05-03T20:52:33.660Z,134.10
2023-05-03T20:55:01.014Z,136.70
2023-05-03T20:57:28.907Z,138.03
2023-05-03T20:59:56.168Z,141.27
2023-05-03T21:02:23.444Z,137.97
2023-05-03T21:04:50.790Z,158.33
2023-05-03T21:07:17.989Z,159.77
2023-05-03T21:09:45.766Z,132.63
2023-05-03T21:12:13.295Z,121.57
2023-05-03T21:14:40.429Z,119.53
2023-05-03T21:17:08.844Z,113.60
2023-05-03T21:19:36.214Z,108.93
2023-05-03T21:22:03.434Z,115.77
2023-05-03T21:24:31.135Z,140.07
2023-05-03T21:26:58.857Z,167.73
2023-05-03T21:29:26.085Z,243.37
2023-05-03T21:31:53.290Z,225.47
2023-05-03T21:34:20.468Z,177.67
2023-05-03T21:36:47.726Z,154.10
2023-05-03T21:39:15.217Z,139.00
2023-05-03T21:41:43.634Z,117.57
2023-05-03T21:44:11.965Z,177.13
2023-05-03T21:46:42.075Z,165.50
2023-05-03T21:49:09.622Z,123.67
2023-05-03T21:51:36.974Z,110.70
2023-05-03T21:54:04.819Z,105.90
2023-05-03T21:56:32.153Z,114.63
2023-05-03T21:58:59.751Z,101.13
2023-05-03T22:01:26.958Z,109.73
2023-05-03T22:03:54.343Z,113.57
2023-05-03T22:06:21.856Z,157.33
2023-05-03T22:08:49.407Z,191.93
2023-05-03T22:11:16.601Z,208.67
2023-05-03T22:13:58.869Z,188.50
2023-05-03T22:16:31.360Z,166.30
2023-05-03T22:18:58.790Z,149.07
2023-05-03T22:21:26.320Z,129.77
2023-05-03T22:23:53.579Z,111.23
2023-05-03T22:26:20.715Z,102.70
2023-05-03T22:28:47.948Z,107.60
2023-05-03T22:31:15.316Z,102.23
2023-05-03T22:33:44.995Z,92.27
2023-05-03T22:36:12.990Z,89.07
2023-05-03T22:38:42.879Z,91.13
2023-05-03T22:41:10.485Z,90.70
2023-05-03T22:43:37.999Z,84.93
2023-05-03T22:46:05.240Z,83.53
2023-05-03T22:48:34.072Z,80.57
2023-05-03T22:51:01.442Z,94.87
2023-05-03T22:53:28.710Z,92.70
2023-05-03T22:55:59.532Z,84.87
2023-05-03T22:58:26.974Z,91.63
2023-05-03T23:00:54.663Z,92.33
2023-05-03T23:03:22.422Z,91.97
2023-05-03T23:05:50.421Z,94.00
2023-05-03T23:08:17.770Z,96.53
2023-05-03T23:10:44.990Z,88.07
2023-05-03T23:13:12.301Z,86.03
2023-05-03T23:15:40.227Z,88.47
2023-05-03T23:18:07.515Z,84.03
2023-05-03T23:20:34.925Z,81.40
2023-05-03T23:23:02.471Z,87.53
2023-05-03T23:25:29.721Z,89.47
2023-05-03T23:27:57.091Z,90.43
2023-05-03T23:30:24.743Z,87.77
2023-05-03T23:32:52.567Z,90.60
2023-05-03T23:35:21.794Z,89.40
2023-05-03T23:37:49.104Z,94.57
2023-05-03T23:40:16.607Z,87.23
2023-05-03T23:42:43.851Z,84.23
2023-05-03T23:45:11.253Z,89.50
2023-05-03T23:47:38.555Z,85.00
2023-05-03T23:50:06.400Z,75.30
2023-05-03T23:52:33.948Z,77.23
2023-05-03T23:55:01.257Z,77.57
2023-05-03T23:57:28.442Z,70.80
2023-05-03T23:59:55.738Z,71.63
